Wetterdaten: Woche 28.02.11 - 06.03.11 (KW9)
Datum Zeit Temp. A. Feuchte A. Luftdruck Regen Wind Richtung Taupunkt Windchill Windben
28.02.2011 00:00 -5,6 C 84 % 1022,3 hPa 0,0 l/m 0,0 km/h N -7,9 C -5,6 C 0,0 km/h
28.02.2011 01:00 -6,1 C 84 % 1022,6 hPa 0,0 l/m 0,0 km/h N -8,3 C -6,1 C 0,0 km/h
28.02.2011 02:00 -6,3 C 85 % 1022,8 hPa 0,0 l/m 0,0 km/h N -8,5 C -6,3 C 0,0 km/h
28.02.2011 03:00 -6,6 C 85 % 1023,1 hPa 0,0 l/m 0,0 km/h N -8,7 C -6,6 C 0,0 km/h
28.02.2011 04:00 -7,0 C 85 % 1023,7 hPa 0,0 l/m 0,0 km/h N -9,0 C -7,0 C 0,0 km/h
28.02.2011 05:00 -7,2 C 85 % 1024,2 hPa 0,0 l/m 0,0 km/h N -9,3 C -7,2 C 0,0 km/h
28.02.2011 06:00 -7,2 C 85 % 1024,8 hPa 0,0 l/m 0,0 km/h N -9,3 C -7,2 C 0,0 km/h
28.02.2011 07:00 -5,6 C 87 % 1025,4 hPa 0,0 l/m 0,0 km/h N -7,5 C -5,6 C 0,0 km/h
28.02.2011 08:00 -3,7 C 85 % 1025,8 hPa 0,0 l/m 0,1 km/h N -5,8 C -3,7 C 2,4 km/h
28.02.2011 09:00 -3,1 C 85 % 1026,1 hPa 0,0 l/m 0,2 km/h N -5,3 C -3,1 C 2,4 km/h
28.02.2011 10:00 -2,5 C 85 % 1026,6 hPa 0,0 l/m 0,7 km/h N-NO -4,7 C -2,5 C 4,4 km/h
28.02.2011 11:00 -1,5 C 85 % 1026,6 hPa 0,0 l/m 0,7 km/h N -3,7 C -1,5 C 3,6 km/h
28.02.2011 12:00 0,5 C 82 % 1026,2 hPa 0,0 l/m 0,7 km/h NO -2,2 C 0,5 C 4,0 km/h
28.02.2011 13:00 2,7 C 73 % 1025,6 hPa 0,0 l/m 1,1 km/h O -1,7 C 2,7 C 4,4 km/h
28.02.2011 14:00 4,6 C 65 % 1025,2 hPa 0,0 l/m 0,8 km/h O-NO -1,4 C 4,6 C 4,0 km/h
28.02.2011 15:00 5,7 C 62 % 1025,1 hPa 0,0 l/m 1,1 km/h O -1,0 C 5,7 C 4,8 km/h
28.02.2011 16:00 5,5 C 63 % 1025,1 hPa 0,0 l/m 0,7 km/h O -1,0 C 5,5 C 3,2 km/h
28.02.2011 17:00 4,4 C 63 % 1025,3 hPa 0,0 l/m 0,0 km/h N -1,9 C 4,4 C 0,4 km/h
28.02.2011 18:00 2,0 C 70 % 1025,8 hPa 0,0 l/m 0,6 km/h S-SW -2,9 C 2,0 C 3,2 km/h
28.02.2011 19:00 0,6 C 74 % 1026,2 hPa 0,0 l/m 0,1 km/h N -3,4 C 0,6 C 2,0 km/h
28.02.2011 20:00 -0,6 C 78 % 1026,7 hPa 0,0 l/m 0,0 km/h N -4,0 C -0,6 C 0,8 km/h
28.02.2011 21:00 -1,8 C 79 % 1027,2 hPa 0,0 l/m 0,0 km/h N -4,9 C -1,8 C 0,4 km/h
28.02.2011 22:00 -2,9 C 82 % 1027,8 hPa 0,0 l/m 0,0 km/h N -5,6 C -2,9 C 0,8 km/h
28.02.2011 23:00 -3,8 C 83 % 1028,5 hPa 0,0 l/m 0,0 km/h N -6,3 C -3,8 C 0,8 km/h
01.03.2011 00:00 -4,1 C 84 % 1029,1 hPa 0,0 l/m 0,0 km/h N -6,4 C -4,1 C 0,4 km/h
01.03.2011 01:00 -3,3 C 85 % 1029,5 hPa 0,0 l/m 0,0 km/h N -5,4 C -3,3 C 0,0 km/h
01.03.2011 02:00 -2,4 C 85 % 1029,6 hPa 0,0 l/m 0,0 km/h N -4,5 C -2,4 C 0,0 km/h
01.03.2011 03:00 -1,8 C 85 % 1029,8 hPa 0,0 l/m 0,0 km/h N -4,1 C -1,8 C 0,0 km/h
01.03.2011 04:00 -1,5 C 84 % 1030,0 hPa 0,0 l/m 0,0 km/h N -3,8 C -1,5 C 0,0 km/h
01.03.2011 05:00 -1,2 C 85 % 1030,4 hPa 0,0 l/m 0,0 km/h N -3,4 C -1,2 C 0,0 km/h
01.03.2011 06:00 -0,8 C 84 % 1030,7 hPa 0,0 l/m 0,0 km/h N -3,2 C -0,8 C 0,8 km/h
01.03.2011 07:00 -0,6 C 85 % 1031,2 hPa 0,0 l/m 0,1 km/h N -2,9 C -0,6 C 1,2 km/h
01.03.2011 08:00 -0,4 C 85 % 1031,9 hPa 0,0 l/m 0,7 km/h O-SO -2,6 C -0,4 C 4,4 km/h
01.03.2011 09:00 -0,3 C 85 % 1032,5 hPa 0,0 l/m 1,2 km/h O -2,5 C -0,3 C 4,4 km/h
01.03.2011 10:00 -0,1 C 85 % 1032,8 hPa 0,0 l/m 0,3 km/h N -2,4 C -0,1 C 1,6 km/h
01.03.2011 11:00 0,5 C 85 % 1033,1 hPa 0,3 l/m 0,2 km/h N -1,8 C 0,5 C 2,7 km/h
01.03.2011 12:00 1,5 C 85 % 1033,2 hPa 0,0 l/m 0,4 km/h N -0,8 C 1,5 C 4,0 km/h
01.03.2011 13:00 2,3 C 81 % 1032,8 hPa 0,0 l/m 1,2 km/h O-NO -0,6 C 2,3 C 5,6 km/h
01.03.2011 14:00 3,1 C 69 % 1032,4 hPa 0,0 l/m 3,5 km/h O -2,1 C 3,1 C 8,8 km/h
01.03.2011 15:00 3,5 C 67 % 1032,4 hPa 0,0 l/m 1,1 km/h N -2,2 C 3,5 C 6,4 km/h
01.03.2011 16:00 3,2 C 66 % 1032,5 hPa 0,0 l/m 0,6 km/h SW -2,6 C 3,2 C 4,0 km/h
01.03.2011 17:00 2,5 C 66 % 1032,7 hPa 0,0 l/m 0,6 km/h SW -3,3 C 2,5 C 4,0 km/h
01.03.2011 18:00 0,9 C 71 % 1033,1 hPa 0,0 l/m 1,5 km/h SW -3,7 C 0,9 C 6,0 km/h
01.03.2011 19:00 0,1 C 76 % 1033,2 hPa 0,0 l/m 1,7 km/h SW -3,7 C 0,1 C 7,2 km/h
01.03.2011 20:00 -0,6 C 76 % 1033,4 hPa 0,0 l/m 0,4 km/h N -4,3 C -0,6 C 4,4 km/h
01.03.2011 21:00 -1,9 C 76 % 1033,4 hPa 0,0 l/m 0,0 km/h N -5,5 C -1,9 C 1,2 km/h
01.03.2011 22:00 -3,2 C 78 % 1033,5 hPa 0,0 l/m 0,0 km/h N -6,4 C -3,2 C 1,2 km/h
01.03.2011 23:00 -3,8 C 81 % 1033,5 hPa 0,0 l/m 0,2 km/h N -6,6 C -3,8 C 2,4 km/h
02.03.2011 00:00 -4,3 C 82 % 1033,6 hPa 0,0 l/m 0,0 km/h N -6,9 C -4,3 C 0,8 km/h
02.03.2011 01:00 -4,6 C 83 % 1033,5 hPa 0,0 l/m 0,0 km/h N -7,1 C -4,6 C 1,2 km/h
02.03.2011 02:00 -5,2 C 83 % 1033,4 hPa 0,0 l/m 0,0 km/h N -7,6 C -5,2 C 0,0 km/h
02.03.2011 03:00 -5,7 C 83 % 1033,3 hPa 0,0 l/m 0,0 km/h N -8,1 C -5,7 C 0,4 km/h
02.03.2011 04:00 -6,4 C 84 % 1033,5 hPa 0,0 l/m 0,0 km/h N -8,7 C -6,4 C 0,4 km/h
02.03.2011 05:00 -6,8 C 84 % 1033,7 hPa 0,0 l/m 0,0 km/h N -9,0 C -6,8 C 0,0 km/h
02.03.2011 06:00 -7,3 C 84 % 1034,2 hPa 0,0 l/m 0,0 km/h N -9,6 C -7,3 C 0,4 km/h
02.03.2011 07:00 -7,1 C 87 % 1034,4 hPa 0,0 l/m 0,0 km/h N -8,9 C -7,1 C 1,2 km/h
02.03.2011 08:00 -4,4 C 85 % 1034,5 hPa 0,0 l/m 0,2 km/h SO -6,5 C -4,4 C 2,0 km/h
02.03.2011 09:00 -1,0 C 76 % 1034,4 hPa 0,0 l/m 1,8 km/h O -4,8 C -1,0 C 6,4 km/h
02.03.2011 10:00 0,3 C 66 % 1034,1 hPa 0,0 l/m 1,9 km/h O-NO -5,2 C 0,3 C 8,0 km/h
02.03.2011 11:00 1,9 C 58 % 1033,6 hPa 0,0 l/m 3,6 km/h O -5,5 C 1,9 C 11,3 km/h
02.03.2011 12:00 2,8 C 53 % 1033,2 hPa 0,0 l/m 3,4 km/h O-NO -5,7 C 2,8 C 10,5 km/h
02.03.2011 13:00 3,3 C 51 % 1032,7 hPa 0,0 l/m 3,3 km/h O-SO -5,8 C 3,3 C 11,3 km/h
02.03.2011 14:00 3,3 C 51 % 1032,4 hPa 0,0 l/m 3,3 km/h O -5,9 C 3,3 C 8,9 km/h
02.03.2011 15:00 3,2 C 53 % 1032,5 hPa 0,0 l/m 3,9 km/h O -5,6 C 3,2 C 10,9 km/h
02.03.2011 16:00 2,9 C 55 % 1032,6 hPa 0,0 l/m 3,0 km/h SO -5,2 C 2,9 C 9,3 km/h
02.03.2011 17:00 2,5 C 57 % 1032,7 hPa 0,0 l/m 2,1 km/h O -5,3 C 2,5 C 6,4 km/h
02.03.2011 18:00 1,9 C 60 % 1032,7 hPa 0,0 l/m 0,6 km/h N -5,2 C 1,9 C 3,6 km/h
02.03.2011 19:00 1,1 C 61 % 1033,0 hPa 0,0 l/m 0,0 km/h N -5,5 C 1,1 C 2,0 km/h
02.03.2011 20:00 -0,1 C 62 % 1033,0 hPa 0,0 l/m 0,0 km/h N -6,5 C -0,1 C 0,0 km/h
02.03.2011 21:00 -1,1 C 69 % 1032,9 hPa 0,0 l/m 0,1 km/h N -6,1 C -1,1 C 2,4 km/h
02.03.2011 22:00 -0,4 C 74 % 1032,8 hPa 0,0 l/m 0,3 km/h N -4,5 C -0,4 C 3,6 km/h
02.03.2011 23:00 -0,4 C 79 % 1032,5 hPa 0,0 l/m 0,4 km/h N -3,6 C -0,4 C 4,0 km/h
03.03.2011 00:00 -0,7 C 83 % 1032,4 hPa 0,0 l/m 0,6 km/h O-SO -3,2 C -0,7 C 3,2 km/h
03.03.2011 01:00 -0,9 C 84 % 1032,4 hPa 0,0 l/m 1,9 km/h O -3,2 C -0,9 C 5,6 km/h
03.03.2011 02:00 -0,8 C 84 % 1032,2 hPa 0,0 l/m 1,9 km/h O-SO -3,2 C -0,8 C 6,4 km/h
03.03.2011 03:00 -0,9 C 84 % 1031,9 hPa 0,0 l/m 1,7 km/h SO -3,2 C -0,9 C 8,4 km/h
03.03.2011 04:00 -0,9 C 85 % 1031,9 hPa 0,0 l/m 0,7 km/h O-SO -3,2 C -0,9 C 5,6 km/h
03.03.2011 05:00 -1,1 C 85 % 1031,8 hPa 0,0 l/m 1,2 km/h O-SO -3,3 C -1,1 C 6,4 km/h
03.03.2011 06:00 -1,2 C 85 % 1031,9 hPa 0,0 l/m 1,1 km/h O-SO -3,4 C -1,2 C 6,0 km/h
03.03.2011 07:00 -1,2 C 85 % 1032,3 hPa 0,0 l/m 2,4 km/h S-SO -3,4 C -1,2 C 7,2 km/h
03.03.2011 08:00 -1,0 C 85 % 1032,8 hPa 0,0 l/m 2,3 km/h O-SO -3,2 C -1,0 C 5,6 km/h
03.03.2011 09:00 -0,8 C 85 % 1032,9 hPa 0,0 l/m 3,0 km/h S-SO -3,0 C -0,8 C 8,6 km/h
03.03.2011 10:00 -0,6 C 85 % 1032,8 hPa 0,0 l/m 2,8 km/h SO -2,9 C -0,6 C 8,4 km/h
03.03.2011 11:00 -0,2 C 83 % 1032,9 hPa 0,0 l/m 2,4 km/h O -2,7 C -0,2 C 9,3 km/h
03.03.2011 12:00 0,1 C 82 % 1032,8 hPa 0,0 l/m 3,3 km/h O -2,7 C 0,1 C 11,7 km/h
03.03.2011 13:00 0,5 C 80 % 1032,5 hPa 0,0 l/m 3,9 km/h O -2,5 C 0,5 C 12,4 km/h
03.03.2011 14:00 0,7 C 78 % 1032,2 hPa 0,0 l/m 5,1 km/h O-SO -2,7 C 0,7 C 16,5 km/h
03.03.2011 15:00 0,7 C 78 % 1031,9 hPa 0,0 l/m 3,4 km/h SO -2,7 C 0,7 C 12,9 km/h
03.03.2011 16:00 0,4 C 79 % 1031,7 hPa 0,0 l/m 2,9 km/h O -2,8 C 0,4 C 9,3 km/h
03.03.2011 17:00 -0,2 C 81 % 1031,9 hPa 0,0 l/m 1,7 km/h O-SO -3,2 C -0,2 C 8,8 km/h
03.03.2011 18:00 -0,9 C 82 % 1032,1 hPa 0,0 l/m 0,6 km/h N -3,7 C -0,9 C 4,4 km/h
03.03.2011 19:00 -1,6 C 83 % 1032,4 hPa 0,0 l/m 0,3 km/h N -4,1 C -1,6 C 3,2 km/h
03.03.2011 20:00 -2,6 C 83 % 1032,6 hPa 0,0 l/m 0,0 km/h N -5,0 C -2,6 C 0,4 km/h
03.03.2011 21:00 -4,0 C 84 % 1032,6 hPa 0,0 l/m 0,0 km/h N -6,3 C -4,0 C 0,0 km/h
03.03.2011 22:00 -4,8 C 85 % 1032,6 hPa 0,0 l/m 0,0 km/h N -7,0 C -4,8 C 0,4 km/h
03.03.2011 23:00 -5,1 C 85 % 1032,9 hPa 0,0 l/m 0,0 km/h N -7,2 C -5,1 C 0,0 km/h
04.03.2011 00:00 -5,5 C 85 % 1033,3 hPa 0,0 l/m 0,0 km/h N -7,6 C -5,5 C 0,0 km/h
04.03.2011 01:00 -5,6 C 85 % 1033,3 hPa 0,0 l/m 0,0 km/h N -7,7 C -5,6 C 0,4 km/h
04.03.2011 02:00 -5,8 C 85 % 1033,0 hPa 0,0 l/m 0,0 km/h N -7,9 C -5,8 C 0,4 km/h
04.03.2011 03:00 -6,2 C 85 % 1033,0 hPa 0,0 l/m 0,0 km/h N -8,3 C -6,2 C 0,0 km/h
04.03.2011 04:00 -6,8 C 85 % 1033,3 hPa 0,0 l/m 0,0 km/h N -8,8 C -6,8 C 0,0 km/h
04.03.2011 05:00 -7,1 C 86 % 1033,2 hPa 0,0 l/m 0,0 km/h N -9,1 C -7,1 C 0,0 km/h
04.03.2011 06:00 -7,3 C 85 % 1033,2 hPa 0,0 l/m 0,0 km/h N -9,4 C -7,3 C 0,0 km/h
04.03.2011 07:00 -7,0 C 85 % 1033,5 hPa 0,0 l/m 0,0 km/h N -9,1 C -7,0 C 0,0 km/h
04.03.2011 08:00 -4,3 C 85 % 1033,9 hPa 0,0 l/m 0,0 km/h N -6,5 C -4,3 C 0,0 km/h
04.03.2011 09:00 -1,5 C 84 % 1034,1 hPa 0,0 l/m 0,8 km/h O -3,8 C -1,5 C 5,2 km/h
04.03.2011 10:00 -0,3 C 84 % 1033,8 hPa 0,0 l/m 0,5 km/h N -2,6 C -0,3 C 4,0 km/h
04.03.2011 11:00 1,6 C 83 % 1033,3 hPa 0,0 l/m 1,1 km/h O -0,9 C 1,6 C 5,6 km/h
04.03.2011 12:00 3,8 C 72 % 1032,6 hPa 0,0 l/m 2,6 km/h S-SO -0,9 C 3,8 C 10,1 km/h
04.03.2011 13:00 4,8 C 67 % 1031,7 hPa 0,0 l/m 2,6 km/h S-SO -0,9 C 4,8 C 8,4 km/h
04.03.2011 14:00 5,8 C 64 % 1030,8 hPa 0,0 l/m 2,6 km/h O -0,5 C 5,8 C 8,9 km/h
04.03.2011 15:00 6,3 C 61 % 1030,4 hPa 0,0 l/m 4,3 km/h O-SO -0,6 C 6,3 C 12,5 km/h
04.03.2011 16:00 5,9 C 62 % 1030,0 hPa 0,0 l/m 3,8 km/h O -0,8 C 5,9 C 10,9 km/h
04.03.2011 17:00 4,9 C 65 % 1029,7 hPa 0,0 l/m 1,2 km/h O -1,2 C 4,9 C 6,4 km/h
04.03.2011 18:00 2,9 C 66 % 1029,6 hPa 0,0 l/m 0,0 km/h N -2,7 C 2,9 C 0,8 km/h
04.03.2011 19:00 1,1 C 73 % 1029,5 hPa 0,0 l/m 0,1 km/h N -3,1 C 1,1 C 2,0 km/h
04.03.2011 20:00 -1,0 C 76 % 1029,4 hPa 0,0 l/m 0,0 km/h N -4,7 C -1,0 C 0,0 km/h
04.03.2011 21:00 -2,5 C 80 % 1029,2 hPa 0,0 l/m 0,0 km/h N -5,6 C -2,5 C 0,0 km/h
04.03.2011 22:00 -3,7 C 82 % 1028,8 hPa 0,0 l/m 0,0 km/h N -6,3 C -3,7 C 0,0 km/h
04.03.2011 23:00 -4,2 C 83 % 1028,3 hPa 0,0 l/m 0,0 km/h N -6,6 C -4,2 C 0,0 km/h
05.03.2011 00:00 -4,9 C 84 % 1027,8 hPa 0,0 l/m 0,0 km/h N -7,1 C -4,9 C 0,0 km/h
05.03.2011 01:00 -5,3 C 85 % 1027,3 hPa 0,0 l/m 0,0 km/h N -7,4 C -5,3 C 0,0 km/h
05.03.2011 02:00 -5,7 C 85 % 1026,9 hPa 0,0 l/m 0,0 km/h N -7,8 C -5,7 C 0,4 km/h
05.03.2011 03:00 -6,2 C 85 % 1026,1 hPa 0,0 l/m 0,0 km/h N -8,3 C -6,2 C 0,0 km/h
05.03.2011 04:00 -6,7 C 85 % 1025,7 hPa 0,0 l/m 0,0 km/h N -8,8 C -6,7 C 0,4 km/h
05.03.2011 05:00 -6,9 C 85 % 1025,3 hPa 0,0 l/m 0,0 km/h N -9,0 C -6,9 C 0,0 km/h
05.03.2011 06:00 -7,0 C 85 % 1025,0 hPa 0,0 l/m 0,0 km/h N -9,1 C -7,0 C 0,0 km/h
05.03.2011 07:00 -5,4 C 85 % 1025,2 hPa 0,0 l/m 0,3 km/h N -7,6 C -5,4 C 2,0 km/h
05.03.2011 08:00 -2,0 C 84 % 1025,0 hPa 0,0 l/m 1,3 km/h NW -4,4 C -2,0 C 4,8 km/h
05.03.2011 09:00 -0,1 C 85 % 1024,6 hPa 0,0 l/m 3,4 km/h NW -2,4 C -0,1 C 8,0 km/h
05.03.2011 10:00 1,0 C 82 % 1024,3 hPa 0,0 l/m 5,6 km/h NW -1,7 C 0,9 C 11,7 km/h
05.03.2011 11:00 1,9 C 77 % 1023,9 hPa 0,0 l/m 5,8 km/h N -1,7 C 1,9 C 14,1 km/h
05.03.2011 12:00 2,7 C 74 % 1023,4 hPa 0,0 l/m 6,0 km/h N-NW -1,6 C 2,6 C 14,5 km/h
05.03.2011 13:00 3,0 C 72 % 1022,6 hPa 0,0 l/m 7,7 km/h NW -1,6 C 1,7 C 18,1 km/h
05.03.2011 14:00 3,7 C 71 % 1021,2 hPa 0,0 l/m 7,5 km/h N-NO -1,2 C 2,7 C 15,7 km/h
05.03.2011 15:00 5,6 C 64 % 1020,3 hPa 0,0 l/m 5,6 km/h NO -0,6 C 5,2 C 13,3 km/h
05.03.2011 16:00 6,1 C 60 % 1020,0 hPa 0,0 l/m 4,2 km/h W -1,0 C 6,1 C 9,3 km/h
05.03.2011 17:00 5,1 C 61 % 1019,7 hPa 0,0 l/m 0,4 km/h N -1,9 C 5,1 C 2,8 km/h
05.03.2011 18:00 2,3 C 67 % 1019,8 hPa 0,0 l/m 0,0 km/h N -3,3 C 2,3 C 0,8 km/h
05.03.2011 19:00 0,2 C 74 % 1019,5 hPa 0,0 l/m 0,3 km/h N -3,9 C 0,2 C 3,6 km/h
05.03.2011 20:00 -0,8 C 78 % 1019,4 hPa 0,0 l/m 0,1 km/h NW -4,1 C -0,8 C 2,8 km/h
05.03.2011 21:00 3,6 C 75 % 1019,1 hPa 0,0 l/m 3,7 km/h NW -0,4 C 3,6 C 10,1 km/h
05.03.2011 22:00 5,5 C 65 % 1018,7 hPa 0,0 l/m 3,8 km/h NW -0,5 C 5,5 C 10,9 km/h
05.03.2011 23:00 4,8 C 67 % 1018,8 hPa 0,0 l/m 4,9 km/h N-NW -0,8 C 4,8 C 9,3 km/h
06.03.2011 00:00 4,4 C 70 % 1018,8 hPa 0,0 l/m 4,4 km/h N-NW -0,6 C 4,4 C 10,1 km/h
06.03.2011 01:00 4,0 C 70 % 1019,3 hPa 0,0 l/m 8,9 km/h NW -1,0 C 1,9 C 23,3 km/h
06.03.2011 02:00 2,0 C 73 % 1019,6 hPa 0,0 l/m 7,8 km/h W -2,4 C 0,7 C 20,9 km/h
06.03.2011 03:00 1,8 C 73 % 1019,7 hPa 0,0 l/m 11,9 km/h N-NW -2,6 C -2,8 C 27,0 km/h
06.03.2011 04:00 1,7 C 69 % 1020,2 hPa 0,0 l/m 10,3 km/h NW -3,5 C -1,7 C 22,9 km/h
06.03.2011 05:00 1,7 C 70 % 1020,3 hPa 0,0 l/m 7,6 km/h NW -3,2 C 0,6 C 17,7 km/h
06.03.2011 06:00 2,1 C 66 % 1020,9 hPa 0,0 l/m 9,9 km/h N-NW -3,6 C -1,2 C 24,1 km/h
06.03.2011 07:00 2,0 C 65 % 1021,7 hPa 0,0 l/m 8,5 km/h W-NW -4,0 C -0,0 C 20,1 km/h
06.03.2011 08:00 2,4 C 61 % 1022,3 hPa 0,0 l/m 10,8 km/h NW -4,3 C -1,3 C 25,8 km/h
06.03.2011 09:00 3,2 C 56 % 1022,4 hPa 0,0 l/m 11,9 km/h N-NW -4,7 C -1,2 C 26,1 km/h
06.03.2011 10:00 4,0 C 47 % 1022,8 hPa 0,0 l/m 12,7 km/h NW -6,3 C -0,8 C 29,8 km/h
06.03.2011 11:00 4,8 C 43 % 1022,8 hPa 0,0 l/m 13,5 km/h N-NW -6,8 C -0,3 C 26,6 km/h
06.03.2011 12:00 5,3 C 40 % 1022,7 hPa 0,0 l/m 13,4 km/h NW -7,1 C 0,3 C 30,6 km/h
06.03.2011 13:00 5,4 C 37 % 1022,5 hPa 0,0 l/m 11,0 km/h NW -8,1 C 1,8 C 24,1 km/h
06.03.2011 14:00 5,7 C 37 % 1022,8 hPa 0,0 l/m 11,6 km/h NW -8,0 C 1,8 C 24,5 km/h
06.03.2011 15:00 4,8 C 38 % 1023,3 hPa 0,0 l/m 12,8 km/h N-NO -8,3 C -0,0 C 27,8 km/h
06.03.2011 16:00 4,0 C 40 % 1023,9 hPa 0,0 l/m 11,9 km/h NW -8,4 C -0,3 C 25,7 km/h
06.03.2011 17:00 3,6 C 41 % 1024,7 hPa 0,0 l/m 9,3 km/h NW -8,5 C 1,1 C 22,5 km/h
06.03.2011 18:00 2,8 C 43 % 1025,5 hPa 0,0 l/m 7,2 km/h NW -8,6 C 2,0 C 17,7 km/h
06.03.2011 19:00 2,1 C 44 % 1026,3 hPa 0,0 l/m 5,5 km/h NW -8,9 C 2,1 C 13,7 km/h
06.03.2011 20:00 1,5 C 44 % 1027,4 hPa 0,0 l/m 4,7 km/h N-NW -9,3 C 1,5 C 12,1 km/h
06.03.2011 21:00 0,9 C 44 % 1028,4 hPa 0,0 l/m 4,3 km/h NW -9,9 C 0,9 C 11,3 km/h
06.03.2011 22:00 0,1 C 46 % 1029,4 hPa 0,0 l/m 2,4 km/h N-NW -10,2 C 0,1 C 7,2 km/h
06.03.2011 23:00 -0,5 C 48 % 1030,0 hPa 0,0 l/m 1,9 km/h NW -10,3 C -0,5 C 7,3 km/h
Min-Datum _ 02.03.11 06.03.11 05.03.11 - 28.02.11 - 06.03.11 02.03.11 28.02.11
_ Min-Zeit 06:45 13:00 22:30 - 00:00 - 23:45 06:45 00:00
Minimum _ -7,5 C 36 % 1018,6 hPa - 0,0 km/h - -10,4 C -7,5 C 0,0 km/h
Max-Datum _ 04.03.11 28.02.11 02.03.11 01.03.11 06.03.11 - 05.03.11 05.03.11 06.03.11
_ Max-Zeit 15:30 07:30 08:15 11:15 11:45 - 21:15 16:00 12:30
Maximum _ 6,4 C 92 % 1034,6 hPa 0,3 l/m 15,3 km/h
N-NW
- 0,1 C 6,4 C 35,4 km/h
N-NW
Durchschnitt _ -0,5 C 74 % 1028,7 hPa #0,3 l/m 2,3 km/h NW -4,8 C -0,9 C 6,6 km/h